sensor_id;sensor_type;location;lat;lon;timestamp;P1;durP1;ratioP1;P2;durP2;ratioP2
15490;SDS011;7847;50.930;4.336;2022-10-31T00:00:50;0.20;;;0.20;;
15490;SDS011;7847;50.930;4.336;2022-10-31T00:03:16;0.20;;;0.20;;
15490;SDS011;7847;50.930;4.336;2022-10-31T00:05:43;0.20;;;0.20;;
15490;SDS011;7847;50.930;4.336;2022-10-31T00:08:09;0.20;;;0.20;;
15490;SDS011;7847;50.930;4.336;2022-10-31T00:10:39;0.20;;;0.20;;
15490;SDS011;7847;50.930;4.336;2022-10-31T00:13:05;0.20;;;0.20;;
15490;SDS011;7847;50.930;4.336;2022-10-31T00:15:35;0.20;;;0.20;;
15490;SDS011;7847;50.930;4.336;2022-10-31T00:18:02;0.20;;;0.20;;
15490;SDS011;7847;50.930;4.336;2022-10-31T00:20:28;0.20;;;0.20;;
15490;SDS011;7847;50.930;4.336;2022-10-31T00:22:57;0.20;;;0.20;;
15490;SDS011;7847;50.930;4.336;2022-10-31T00:25:23;0.20;;;0.20;;
15490;SDS011;7847;50.930;4.336;2022-10-31T00:27:49;0.20;;;0.20;;
15490;SDS011;7847;50.930;4.336;2022-10-31T00:30:15;0.20;;;0.20;;
15490;SDS011;7847;50.930;4.336;2022-10-31T00:32:41;0.20;;;0.20;;
15490;SDS011;7847;50.930;4.336;2022-10-31T00:35:08;0.20;;;0.20;;
15490;SDS011;7847;50.930;4.336;2022-10-31T00:37:34;0.20;;;0.20;;
15490;SDS011;7847;50.930;4.336;2022-10-31T00:40:00;0.25;;;0.25;;
15490;SDS011;7847;50.930;4.336;2022-10-31T00:42:26;0.20;;;0.20;;
15490;SDS011;7847;50.930;4.336;2022-10-31T00:44:52;0.20;;;0.20;;
15490;SDS011;7847;50.930;4.336;2022-10-31T00:47:18;0.20;;;0.20;;
15490;SDS011;7847;50.930;4.336;2022-10-31T00:49:44;0.20;;;0.20;;
15490;SDS011;7847;50.930;4.336;2022-10-31T00:52:10;0.30;;;0.30;;
15490;SDS011;7847;50.930;4.336;2022-10-31T00:54:36;0.20;;;0.20;;
15490;SDS011;7847;50.930;4.336;2022-10-31T00:57:02;0.20;;;0.20;;
15490;SDS011;7847;50.930;4.336;2022-10-31T00:59:28;0.30;;;0.30;;
15490;SDS011;7847;50.930;4.336;2022-10-31T01:01:54;0.20;;;0.20;;
15490;SDS011;7847;50.930;4.336;2022-10-31T01:04:21;0.20;;;0.20;;
15490;SDS011;7847;50.930;4.336;2022-10-31T01:06:47;0.20;;;0.20;;
15490;SDS011;7847;50.930;4.336;2022-10-31T01:09:13;0.20;;;0.20;;
15490;SDS011;7847;50.930;4.336;2022-10-31T01:11:39;0.20;;;0.20;;
15490;SDS011;7847;50.930;4.336;2022-10-31T01:14:05;0.20;;;0.20;;
15490;SDS011;7847;50.930;4.336;2022-10-31T01:16:31;0.20;;;0.20;;
15490;SDS011;7847;50.930;4.336;2022-10-31T01:18:57;0.20;;;0.20;;
15490;SDS011;7847;50.930;4.336;2022-10-31T01:21:24;0.20;;;0.20;;
15490;SDS011;7847;50.930;4.336;2022-10-31T01:23:50;0.20;;;0.20;;
15490;SDS011;7847;50.930;4.336;2022-10-31T01:26:18;0.30;;;0.30;;
15490;SDS011;7847;50.930;4.336;2022-10-31T01:31:15;0.20;;;0.20;;
15490;SDS011;7847;50.930;4.336;2022-10-31T01:33:41;0.20;;;0.20;;
15490;SDS011;7847;50.930;4.336;2022-10-31T01:36:11;0.20;;;0.20;;
15490;SDS011;7847;50.930;4.336;2022-10-31T01:38:37;0.20;;;0.20;;
15490;SDS011;7847;50.930;4.336;2022-10-31T01:41:03;0.20;;;0.20;;
15490;SDS011;7847;50.930;4.336;2022-10-31T01:46:37;0.20;;;0.20;;
15490;SDS011;7847;50.930;4.336;2022-10-31T01:49:06;0.20;;;0.20;;
15490;SDS011;7847;50.930;4.336;2022-10-31T01:51:37;0.20;;;0.20;;
15490;SDS011;7847;50.930;4.336;2022-10-31T01:54:05;0.20;;;0.20;;
15490;SDS011;7847;50.930;4.336;2022-10-31T01:56:32;0.30;;;0.30;;
15490;SDS011;7847;50.930;4.336;2022-10-31T01:58:59;0.30;;;0.30;;
15490;SDS011;7847;50.930;4.336;2022-10-31T02:01:27;0.30;;;0.30;;
15490;SDS011;7847;50.930;4.336;2022-10-31T02:03:53;0.20;;;0.20;;
15490;SDS011;7847;50.930;4.336;2022-10-31T02:06:43;0.30;;;0.30;;
15490;SDS011;7847;50.930;4.336;2022-10-31T02:09:07;0.30;;;0.30;;
15490;SDS011;7847;50.930;4.336;2022-10-31T02:11:33;0.30;;;0.30;;
15490;SDS011;7847;50.930;4.336;2022-10-31T02:14:00;0.30;;;0.30;;
15490;SDS011;7847;50.930;4.336;2022-10-31T02:16:27;0.30;;;0.30;;
15490;SDS011;7847;50.930;4.336;2022-10-31T02:18:53;0.30;;;0.30;;
15490;SDS011;7847;50.930;4.336;2022-10-31T02:24:00;0.20;;;0.20;;
15490;SDS011;7847;50.930;4.336;2022-10-31T02:26:36;0.30;;;0.30;;
15490;SDS011;7847;50.930;4.336;2022-10-31T02:29:23;0.20;;;0.20;;
15490;SDS011;7847;50.930;4.336;2022-10-31T02:39:18;0.20;;;0.20;;
15490;SDS011;7847;50.930;4.336;2022-10-31T02:41:50;0.20;;;0.20;;
15490;SDS011;7847;50.930;4.336;2022-10-31T02:46:53;0.20;;;0.20;;
15490;SDS011;7847;50.930;4.336;2022-10-31T02:49:28;0.30;;;0.30;;
15490;SDS011;7847;50.930;4.336;2022-10-31T02:51:55;0.20;;;0.20;;
15490;SDS011;7847;50.930;4.336;2022-10-31T02:54:23;0.20;;;0.20;;
15490;SDS011;7847;50.930;4.336;2022-10-31T02:56:50;0.30;;;0.30;;
15490;SDS011;7847;50.930;4.336;2022-10-31T02:59:17;0.20;;;0.20;;
15490;SDS011;7847;50.930;4.336;2022-10-31T03:07:07;0.30;;;0.30;;
15490;SDS011;7847;50.930;4.336;2022-10-31T03:12:04;0.30;;;0.30;;
15490;SDS011;7847;50.930;4.336;2022-10-31T03:16:59;0.30;;;0.30;;
15490;SDS011;7847;50.930;4.336;2022-10-31T03:19:33;0.27;;;0.27;;
15490;SDS011;7847;50.930;4.336;2022-10-31T03:22:07;0.20;;;0.20;;
15490;SDS011;7847;50.930;4.336;2022-10-31T03:24:37;0.20;;;0.20;;
15490;SDS011;7847;50.930;4.336;2022-10-31T03:27:05;0.30;;;0.30;;
15490;SDS011;7847;50.930;4.336;2022-10-31T03:29:32;0.27;;;0.27;;
15490;SDS011;7847;50.930;4.336;2022-10-31T03:32:01;0.30;;;0.30;;
15490;SDS011;7847;50.930;4.336;2022-10-31T03:34:29;0.27;;;0.27;;
15490;SDS011;7847;50.930;4.336;2022-10-31T03:36:55;0.30;;;0.30;;
15490;SDS011;7847;50.930;4.336;2022-10-31T03:39:22;0.30;;;0.30;;
15490;SDS011;7847;50.930;4.336;2022-10-31T03:41:52;0.30;;;0.30;;
15490;SDS011;7847;50.930;4.336;2022-10-31T03:44:19;0.30;;;0.30;;
15490;SDS011;7847;50.930;4.336;2022-10-31T03:46:46;0.23;;;0.23;;
15490;SDS011;7847;50.930;4.336;2022-10-31T03:49:12;0.30;;;0.30;;
15490;SDS011;7847;50.930;4.336;2022-10-31T03:51:43;0.30;;;0.30;;
15490;SDS011;7847;50.930;4.336;2022-10-31T03:54:13;0.30;;;0.30;;
15490;SDS011;7847;50.930;4.336;2022-10-31T03:56:43;0.30;;;0.30;;
15490;SDS011;7847;50.930;4.336;2022-10-31T03:59:13;0.30;;;0.30;;
15490;SDS011;7847;50.930;4.336;2022-10-31T04:01:43;0.30;;;0.30;;
15490;SDS011;7847;50.930;4.336;2022-10-31T04:04:12;0.20;;;0.20;;
15490;SDS011;7847;50.930;4.336;2022-10-31T04:06:38;0.30;;;0.30;;
15490;SDS011;7847;50.930;4.336;2022-10-31T04:09:06;0.30;;;0.30;;
15490;SDS011;7847;50.930;4.336;2022-10-31T04:11:36;0.30;;;0.30;;
15490;SDS011;7847;50.930;4.336;2022-10-31T04:14:03;0.30;;;0.30;;
15490;SDS011;7847;50.930;4.336;2022-10-31T04:16:30;0.30;;;0.30;;
15490;SDS011;7847;50.930;4.336;2022-10-31T04:18:56;0.30;;;0.30;;
15490;SDS011;7847;50.930;4.336;2022-10-31T04:21:29;0.30;;;0.30;;
15490;SDS011;7847;50.930;4.336;2022-10-31T04:23:55;0.30;;;0.30;;
15490;SDS011;7847;50.930;4.336;2022-10-31T04:26:21;0.30;;;0.30;;
15490;SDS011;7847;50.930;4.336;2022-10-31T04:28:47;0.30;;;0.30;;
15490;SDS011;7847;50.930;4.336;2022-10-31T04:31:13;0.30;;;0.30;;
15490;SDS011;7847;50.930;4.336;2022-10-31T04:33:40;0.30;;;0.30;;
15490;SDS011;7847;50.930;4.336;2022-10-31T04:36:06;0.20;;;0.20;;
15490;SDS011;7847;50.930;4.336;2022-10-31T04:38:32;0.20;;;0.20;;
15490;SDS011;7847;50.930;4.336;2022-10-31T04:40:58;0.30;;;0.30;;
15490;SDS011;7847;50.930;4.336;2022-10-31T04:43:24;0.20;;;0.20;;
15490;SDS011;7847;50.930;4.336;2022-10-31T04:45:51;0.30;;;0.30;;
15490;SDS011;7847;50.930;4.336;2022-10-31T04:48:17;0.30;;;0.30;;
15490;SDS011;7847;50.930;4.336;2022-10-31T04:50:43;0.20;;;0.20;;
15490;SDS011;7847;50.930;4.336;2022-10-31T04:53:09;0.30;;;0.30;;
15490;SDS011;7847;50.930;4.336;2022-10-31T04:55:35;0.30;;;0.30;;
15490;SDS011;7847;50.930;4.336;2022-10-31T04:58:02;0.30;;;0.30;;
15490;SDS011;7847;50.930;4.336;2022-10-31T05:00:28;0.30;;;0.30;;
15490;SDS011;7847;50.930;4.336;2022-10-31T05:02:55;0.30;;;0.30;;
15490;SDS011;7847;50.930;4.336;2022-10-31T05:05:22;0.30;;;0.30;;
15490;SDS011;7847;50.930;4.336;2022-10-31T05:07:49;0.30;;;0.30;;
15490;SDS011;7847;50.930;4.336;2022-10-31T05:10:16;0.30;;;0.30;;
15490;SDS011;7847;50.930;4.336;2022-10-31T05:12:47;0.30;;;0.30;;
15490;SDS011;7847;50.930;4.336;2022-10-31T05:15:13;0.30;;;0.30;;
15490;SDS011;7847;50.930;4.336;2022-10-31T05:17:39;0.30;;;0.30;;
15490;SDS011;7847;50.930;4.336;2022-10-31T05:20:06;0.30;;;0.30;;
15490;SDS011;7847;50.930;4.336;2022-10-31T05:22:32;0.30;;;0.30;;
15490;SDS011;7847;50.930;4.336;2022-10-31T05:24:58;0.30;;;0.30;;
15490;SDS011;7847;50.930;4.336;2022-10-31T05:27:24;0.30;;;0.30;;
15490;SDS011;7847;50.930;4.336;2022-10-31T05:29:50;0.30;;;0.30;;
15490;SDS011;7847;50.930;4.336;2022-10-31T05:32:16;0.30;;;0.30;;
15490;SDS011;7847;50.930;4.336;2022-10-31T05:34:42;0.30;;;0.30;;
15490;SDS011;7847;50.930;4.336;2022-10-31T05:37:08;0.30;;;0.30;;
15490;SDS011;7847;50.930;4.336;2022-10-31T05:39:34;0.30;;;0.30;;
15490;SDS011;7847;50.930;4.336;2022-10-31T05:42:00;0.20;;;0.20;;
15490;SDS011;7847;50.930;4.336;2022-10-31T05:44:26;0.30;;;0.30;;
15490;SDS011;7847;50.930;4.336;2022-10-31T05:46:53;0.30;;;0.30;;
15490;SDS011;7847;50.930;4.336;2022-10-31T05:49:19;0.30;;;0.30;;
15490;SDS011;7847;50.930;4.336;2022-10-31T05:51:45;0.30;;;0.30;;
15490;SDS011;7847;50.930;4.336;2022-10-31T05:54:11;0.30;;;0.30;;
15490;SDS011;7847;50.930;4.336;2022-10-31T05:56:37;0.30;;;0.30;;
15490;SDS011;7847;50.930;4.336;2022-10-31T05:59:03;0.30;;;0.30;;
15490;SDS011;7847;50.930;4.336;2022-10-31T06:01:29;0.30;;;0.30;;
15490;SDS011;7847;50.930;4.336;2022-10-31T06:03:55;0.30;;;0.30;;
15490;SDS011;7847;50.930;4.336;2022-10-31T06:06:21;0.30;;;0.30;;
15490;SDS011;7847;50.930;4.336;2022-10-31T06:08:47;0.30;;;0.30;;
15490;SDS011;7847;50.930;4.336;2022-10-31T06:11:13;0.30;;;0.30;;
15490;SDS011;7847;50.930;4.336;2022-10-31T06:13:39;0.30;;;0.30;;
15490;SDS011;7847;50.930;4.336;2022-10-31T06:16:05;0.30;;;0.30;;
15490;SDS011;7847;50.930;4.336;2022-10-31T06:18:31;0.30;;;0.30;;
15490;SDS011;7847;50.930;4.336;2022-10-31T06:20:57;0.30;;;0.30;;
15490;SDS011;7847;50.930;4.336;2022-10-31T06:23:23;0.30;;;0.30;;
15490;SDS011;7847;50.930;4.336;2022-10-31T06:25:49;0.30;;;0.30;;
15490;SDS011;7847;50.930;4.336;2022-10-31T06:28:15;0.30;;;0.30;;
15490;SDS011;7847;50.930;4.336;2022-10-31T06:30:42;0.30;;;0.30;;
15490;SDS011;7847;50.930;4.336;2022-10-31T06:33:08;0.30;;;0.30;;
15490;SDS011;7847;50.930;4.336;2022-10-31T06:35:34;0.30;;;0.30;;
15490;SDS011;7847;50.930;4.336;2022-10-31T06:38:00;0.30;;;0.30;;
15490;SDS011;7847;50.930;4.336;2022-10-31T06:40:26;0.30;;;0.30;;
15490;SDS011;7847;50.930;4.336;2022-10-31T06:42:59;0.30;;;0.30;;
15490;SDS011;7847;50.930;4.336;2022-10-31T06:45:25;0.30;;;0.30;;
15490;SDS011;7847;50.930;4.336;2022-10-31T06:47:54;0.27;;;0.27;;
15490;SDS011;7847;50.930;4.336;2022-10-31T06:50:21;0.30;;;0.30;;
15490;SDS011;7847;50.930;4.336;2022-10-31T06:52:57;0.20;;;0.20;;
15490;SDS011;7847;50.930;4.336;2022-10-31T06:55:24;0.30;;;0.30;;
15490;SDS011;7847;50.930;4.336;2022-10-31T07:00:16;0.30;;;0.30;;
15490;SDS011;7847;50.930;4.336;2022-10-31T07:02:43;0.20;;;0.20;;
15490;SDS011;7847;50.930;4.336;2022-10-31T07:05:09;0.30;;;0.30;;
15490;SDS011;7847;50.930;4.336;2022-10-31T07:07:35;0.30;;;0.30;;
15490;SDS011;7847;50.930;4.336;2022-10-31T07:10:01;0.30;;;0.30;;
15490;SDS011;7847;50.930;4.336;2022-10-31T07:12:27;0.20;;;0.20;;
15490;SDS011;7847;50.930;4.336;2022-10-31T07:14:53;0.30;;;0.30;;
15490;SDS011;7847;50.930;4.336;2022-10-31T07:17:19;0.20;;;0.20;;
15490;SDS011;7847;50.930;4.336;2022-10-31T07:19:49;0.20;;;0.20;;
15490;SDS011;7847;50.930;4.336;2022-10-31T07:22:15;0.20;;;0.20;;
15490;SDS011;7847;50.930;4.336;2022-10-31T07:24:41;0.30;;;0.30;;
15490;SDS011;7847;50.930;4.336;2022-10-31T07:27:07;0.30;;;0.30;;
15490;SDS011;7847;50.930;4.336;2022-10-31T07:29:33;0.30;;;0.30;;
15490;SDS011;7847;50.930;4.336;2022-10-31T07:31:59;0.20;;;0.20;;
15490;SDS011;7847;50.930;4.336;2022-10-31T07:34:25;0.30;;;0.30;;
15490;SDS011;7847;50.930;4.336;2022-10-31T07:36:51;0.20;;;0.20;;
15490;SDS011;7847;50.930;4.336;2022-10-31T07:39:17;0.30;;;0.30;;
15490;SDS011;7847;50.930;4.336;2022-10-31T07:41:43;0.20;;;0.20;;
15490;SDS011;7847;50.930;4.336;2022-10-31T07:44:09;0.22;;;0.22;;
15490;SDS011;7847;50.930;4.336;2022-10-31T07:46:35;0.27;;;0.27;;
15490;SDS011;7847;50.930;4.336;2022-10-31T07:49:02;0.20;;;0.20;;
15490;SDS011;7847;50.930;4.336;2022-10-31T07:51:28;0.30;;;0.30;;
15490;SDS011;7847;50.930;4.336;2022-10-31T07:53:54;0.20;;;0.20;;
15490;SDS011;7847;50.930;4.336;2022-10-31T07:56:20;0.20;;;0.20;;
15490;SDS011;7847;50.930;4.336;2022-10-31T07:58:46;0.20;;;0.20;;
15490;SDS011;7847;50.930;4.336;2022-10-31T08:01:12;0.20;;;0.20;;
15490;SDS011;7847;50.930;4.336;2022-10-31T08:03:38;0.20;;;0.20;;
15490;SDS011;7847;50.930;4.336;2022-10-31T08:06:04;0.30;;;0.30;;
15490;SDS011;7847;50.930;4.336;2022-10-31T08:08:30;0.20;;;0.20;;
15490;SDS011;7847;50.930;4.336;2022-10-31T08:10:57;0.20;;;0.20;;
15490;SDS011;7847;50.930;4.336;2022-10-31T08:13:23;0.20;;;0.20;;
15490;SDS011;7847;50.930;4.336;2022-10-31T08:15:50;0.20;;;0.20;;
15490;SDS011;7847;50.930;4.336;2022-10-31T08:18:18;0.22;;;0.22;;
15490;SDS011;7847;50.930;4.336;2022-10-31T08:20:46;0.30;;;0.30;;
15490;SDS011;7847;50.930;4.336;2022-10-31T08:23:12;0.30;;;0.30;;
15490;SDS011;7847;50.930;4.336;2022-10-31T08:25:39;0.30;;;0.30;;
15490;SDS011;7847;50.930;4.336;2022-10-31T08:28:05;0.20;;;0.20;;
15490;SDS011;7847;50.930;4.336;2022-10-31T08:30:32;0.20;;;0.20;;
15490;SDS011;7847;50.930;4.336;2022-10-31T08:35:28;0.20;;;0.20;;
15490;SDS011;7847;50.930;4.336;2022-10-31T08:37:54;0.20;;;0.20;;
15490;SDS011;7847;50.930;4.336;2022-10-31T08:40:20;0.20;;;0.20;;
15490;SDS011;7847;50.930;4.336;2022-10-31T08:42:47;0.20;;;0.20;;
15490;SDS011;7847;50.930;4.336;2022-10-31T08:45:13;0.20;;;0.20;;
15490;SDS011;7847;50.930;4.336;2022-10-31T08:47:39;0.20;;;0.20;;
15490;SDS011;7847;50.930;4.336;2022-10-31T08:50:05;0.20;;;0.20;;
15490;SDS011;7847;50.930;4.336;2022-10-31T08:52:31;0.20;;;0.20;;
15490;SDS011;7847;50.930;4.336;2022-10-31T08:54:57;0.20;;;0.20;;
15490;SDS011;7847;50.930;4.336;2022-10-31T08:57:23;0.20;;;0.20;;
15490;SDS011;7847;50.930;4.336;2022-10-31T08:59:49;0.30;;;0.30;;
15490;SDS011;7847;50.930;4.336;2022-10-31T09:02:15;0.20;;;0.20;;
15490;SDS011;7847;50.930;4.336;2022-10-31T09:04:41;0.20;;;0.20;;
15490;SDS011;7847;50.930;4.336;2022-10-31T09:07:07;0.20;;;0.20;;
15490;SDS011;7847;50.930;4.336;2022-10-31T09:09:33;0.20;;;0.20;;
15490;SDS011;7847;50.930;4.336;2022-10-31T09:11:59;0.20;;;0.20;;
15490;SDS011;7847;50.930;4.336;2022-10-31T09:14:25;0.30;;;0.30;;
15490;SDS011;7847;50.930;4.336;2022-10-31T09:16:51;0.20;;;0.20;;
15490;SDS011;7847;50.930;4.336;2022-10-31T09:19:17;0.20;;;0.20;;
15490;SDS011;7847;50.930;4.336;2022-10-31T09:21:43;0.20;;;0.20;;
15490;SDS011;7847;50.930;4.336;2022-10-31T09:24:09;0.20;;;0.20;;
15490;SDS011;7847;50.930;4.336;2022-10-31T09:26:35;0.28;;;0.28;;
15490;SDS011;7847;50.930;4.336;2022-10-31T09:29:02;0.30;;;0.30;;
15490;SDS011;7847;50.930;4.336;2022-10-31T09:31:28;0.20;;;0.20;;
15490;SDS011;7847;50.930;4.336;2022-10-31T09:33:54;0.20;;;0.20;;
15490;SDS011;7847;50.930;4.336;2022-10-31T09:36:20;0.20;;;0.20;;
15490;SDS011;7847;50.930;4.336;2022-10-31T09:38:46;0.20;;;0.20;;
15490;SDS011;7847;50.930;4.336;2022-10-31T09:51:19;0.20;;;0.20;;
15490;SDS011;7847;50.930;4.336;2022-10-31T09:56:22;0.20;;;0.20;;
15490;SDS011;7847;50.930;4.336;2022-10-31T09:58:55;0.20;;;0.20;;
15490;SDS011;7847;50.930;4.336;2022-10-31T10:04:16;0.20;;;0.20;;
15490;SDS011;7847;50.930;4.336;2022-10-31T10:06:44;0.20;;;0.20;;
15490;SDS011;7847;50.930;4.336;2022-10-31T10:09:11;0.20;;;0.20;;
15490;SDS011;7847;50.930;4.336;2022-10-31T10:14:13;0.20;;;0.20;;
15490;SDS011;7847;50.930;4.336;2022-10-31T10:24:20;0.20;;;0.20;;
15490;SDS011;7847;50.930;4.336;2022-10-31T10:32:08;0.20;;;0.20;;
15490;SDS011;7847;50.930;4.336;2022-10-31T10:34:47;0.20;;;0.20;;
15490;SDS011;7847;50.930;4.336;2022-10-31T10:37:18;0.20;;;0.20;;
15490;SDS011;7847;50.930;4.336;2022-10-31T10:39:45;0.20;;;0.20;;
15490;SDS011;7847;50.930;4.336;2022-10-31T10:42:14;0.20;;;0.20;;
15490;SDS011;7847;50.930;4.336;2022-10-31T10:44:59;0.20;;;0.20;;
15490;SDS011;7847;50.930;4.336;2022-10-31T10:47:48;0.20;;;0.20;;
15490;SDS011;7847;50.930;4.336;2022-10-31T10:50:20;0.20;;;0.20;;
15490;SDS011;7847;50.930;4.336;2022-10-31T10:53:06;0.20;;;0.20;;
15490;SDS011;7847;50.930;4.336;2022-10-31T10:58:09;0.20;;;0.20;;
15490;SDS011;7847;50.930;4.336;2022-10-31T11:03:02;0.25;;;0.25;;
15490;SDS011;7847;50.930;4.336;2022-10-31T11:07:59;0.20;;;0.20;;
15490;SDS011;7847;50.930;4.336;2022-10-31T11:10:25;0.20;;;0.20;;
15490;SDS011;7847;50.930;4.336;2022-10-31T11:13:02;0.20;;;0.20;;
15490;SDS011;7847;50.930;4.336;2022-10-31T11:15:30;0.20;;;0.20;;
15490;SDS011;7847;50.930;4.336;2022-10-31T11:17:56;0.20;;;0.20;;
15490;SDS011;7847;50.930;4.336;2022-10-31T11:20:30;0.17;;;0.17;;
15490;SDS011;7847;50.930;4.336;2022-10-31T11:23:03;0.20;;;0.20;;
15490;SDS011;7847;50.930;4.336;2022-10-31T11:25:29;0.20;;;0.20;;
15490;SDS011;7847;50.930;4.336;2022-10-31T11:27:59;0.20;;;0.20;;
15490;SDS011;7847;50.930;4.336;2022-10-31T11:30:26;0.20;;;0.20;;
15490;SDS011;7847;50.930;4.336;2022-10-31T11:32:52;0.10;;;0.10;;
15490;SDS011;7847;50.930;4.336;2022-10-31T11:35:19;0.20;;;0.20;;
15490;SDS011;7847;50.930;4.336;2022-10-31T11:37:46;0.20;;;0.20;;
15490;SDS011;7847;50.930;4.336;2022-10-31T11:40:20;0.20;;;0.20;;
15490;SDS011;7847;50.930;4.336;2022-10-31T11:42:46;0.20;;;0.20;;
15490;SDS011;7847;50.930;4.336;2022-10-31T11:45:14;0.20;;;0.20;;
15490;SDS011;7847;50.930;4.336;2022-10-31T11:47:41;0.10;;;0.10;;
15490;SDS011;7847;50.930;4.336;2022-10-31T11:50:09;0.20;;;0.20;;
15490;SDS011;7847;50.930;4.336;2022-10-31T11:52:36;0.20;;;0.20;;
15490;SDS011;7847;50.930;4.336;2022-10-31T11:57:51;0.20;;;0.20;;
15490;SDS011;7847;50.930;4.336;2022-10-31T12:00:25;0.20;;;0.20;;
15490;SDS011;7847;50.930;4.336;2022-10-31T12:03:03;0.20;;;0.20;;
15490;SDS011;7847;50.930;4.336;2022-10-31T12:05:29;0.20;;;0.20;;
15490;SDS011;7847;50.930;4.336;2022-10-31T12:07:58;0.20;;;0.20;;
15490;SDS011;7847;50.930;4.336;2022-10-31T12:10:26;0.20;;;0.20;;
15490;SDS011;7847;50.930;4.336;2022-10-31T12:13:17;0.20;;;0.20;;
15490;SDS011;7847;50.930;4.336;2022-10-31T12:15:52;0.10;;;0.10;;
15490;SDS011;7847;50.930;4.336;2022-10-31T12:18:43;0.20;;;0.20;;
15490;SDS011;7847;50.930;4.336;2022-10-31T12:21:23;0.20;;;0.20;;
15490;SDS011;7847;50.930;4.336;2022-10-31T12:24:05;0.20;;;0.20;;
15490;SDS011;7847;50.930;4.336;2022-10-31T12:27:10;0.20;;;0.20;;
15490;SDS011;7847;50.930;4.336;2022-10-31T12:40:24;0.15;;;0.15;;
15490;SDS011;7847;50.930;4.336;2022-10-31T12:48:10;0.20;;;0.20;;
15490;SDS011;7847;50.930;4.336;2022-10-31T12:58:51;0.20;;;0.20;;
15490;SDS011;7847;50.930;4.336;2022-10-31T13:01:20;0.10;;;0.10;;
15490;SDS011;7847;50.930;4.336;2022-10-31T13:06:38;0.15;;;0.15;;
15490;SDS011;7847;50.930;4.336;2022-10-31T13:09:07;0.17;;;0.17;;
15490;SDS011;7847;50.930;4.336;2022-10-31T13:16:46;0.10;;;0.10;;
15490;SDS011;7847;50.930;4.336;2022-10-31T13:24:07;0.20;;;0.20;;
15490;SDS011;7847;50.930;4.336;2022-10-31T13:29:42;0.20;;;0.20;;
15490;SDS011;7847;50.930;4.336;2022-10-31T13:32:00;0.20;;;0.20;;
15490;SDS011;7847;50.930;4.336;2022-10-31T13:34:39;0.10;;;0.10;;
15490;SDS011;7847;50.930;4.336;2022-10-31T13:45:20;0.10;;;0.10;;
15490;SDS011;7847;50.930;4.336;2022-10-31T13:50:23;0.10;;;0.10;;
15490;SDS011;7847;50.930;4.336;2022-10-31T13:52:49;0.20;;;0.20;;
15490;SDS011;7847;50.930;4.336;2022-10-31T13:55:35;0.10;;;0.10;;
15490;SDS011;7847;50.930;4.336;2022-10-31T13:58:03;0.10;;;0.10;;
15490;SDS011;7847;50.930;4.336;2022-10-31T14:00:30;0.10;;;0.10;;
15490;SDS011;7847;50.930;4.336;2022-10-31T14:03:00;0.13;;;0.13;;
15490;SDS011;7847;50.930;4.336;2022-10-31T14:07:56;0.10;;;0.10;;
15490;SDS011;7847;50.930;4.336;2022-10-31T14:12:48;0.20;;;0.20;;
15490;SDS011;7847;50.930;4.336;2022-10-31T14:15:22;0.20;;;0.20;;
15490;SDS011;7847;50.930;4.336;2022-10-31T14:17:51;0.20;;;0.20;;
15490;SDS011;7847;50.930;4.336;2022-10-31T14:22:45;0.10;;;0.10;;
15490;SDS011;7847;50.930;4.336;2022-10-31T14:27:56;0.10;;;0.10;;
15490;SDS011;7847;50.930;4.336;2022-10-31T14:30:23;0.20;;;0.20;;
15490;SDS011;7847;50.930;4.336;2022-10-31T14:32:50;0.20;;;0.20;;
15490;SDS011;7847;50.930;4.336;2022-10-31T14:35:17;0.10;;;0.10;;
15490;SDS011;7847;50.930;4.336;2022-10-31T14:40:24;0.20;;;0.20;;
15490;SDS011;7847;50.930;4.336;2022-10-31T14:52:50;0.10;;;0.10;;
15490;SDS011;7847;50.930;4.336;2022-10-31T14:55:17;0.10;;;0.10;;
15490;SDS011;7847;50.930;4.336;2022-10-31T14:57:54;0.10;;;0.10;;
15490;SDS011;7847;50.930;4.336;2022-10-31T15:00:22;0.10;;;0.10;;
15490;SDS011;7847;50.930;4.336;2022-10-31T15:02:55;0.20;;;0.20;;
15490;SDS011;7847;50.930;4.336;2022-10-31T15:05:23;0.10;;;0.10;;
15490;SDS011;7847;50.930;4.336;2022-10-31T15:07:55;0.10;;;0.10;;
15490;SDS011;7847;50.930;4.336;2022-10-31T15:12:51;0.20;;;0.20;;
15490;SDS011;7847;50.930;4.336;2022-10-31T15:15:19;0.10;;;0.10;;
15490;SDS011;7847;50.930;4.336;2022-10-31T15:17:51;0.10;;;0.10;;
15490;SDS011;7847;50.930;4.336;2022-10-31T15:20:22;0.20;;;0.20;;
15490;SDS011;7847;50.930;4.336;2022-10-31T15:22:49;0.20;;;0.20;;
15490;SDS011;7847;50.930;4.336;2022-10-31T15:25:17;0.20;;;0.20;;
15490;SDS011;7847;50.930;4.336;2022-10-31T15:27:44;0.20;;;0.20;;
15490;SDS011;7847;50.930;4.336;2022-10-31T15:30:20;0.20;;;0.20;;
15490;SDS011;7847;50.930;4.336;2022-10-31T15:32:47;0.20;;;0.20;;
15490;SDS011;7847;50.930;4.336;2022-10-31T15:35:21;0.20;;;0.20;;
15490;SDS011;7847;50.930;4.336;2022-10-31T15:37:47;0.10;;;0.10;;
15490;SDS011;7847;50.930;4.336;2022-10-31T15:40:15;0.10;;;0.10;;
15490;SDS011;7847;50.930;4.336;2022-10-31T15:42:41;0.20;;;0.20;;
15490;SDS011;7847;50.930;4.336;2022-10-31T15:47:37;0.20;;;0.20;;
15490;SDS011;7847;50.930;4.336;2022-10-31T15:50:17;0.10;;;0.10;;
15490;SDS011;7847;50.930;4.336;2022-10-31T15:52:44;0.20;;;0.20;;
15490;SDS011;7847;50.930;4.336;2022-10-31T16:00:28;0.20;;;0.20;;
15490;SDS011;7847;50.930;4.336;2022-10-31T16:03:02;0.20;;;0.20;;
15490;SDS011;7847;50.930;4.336;2022-10-31T16:05:32;0.20;;;0.20;;
15490;SDS011;7847;50.930;4.336;2022-10-31T16:07:59;0.20;;;0.20;;
15490;SDS011;7847;50.930;4.336;2022-10-31T16:10:26;0.20;;;0.20;;
15490;SDS011;7847;50.930;4.336;2022-10-31T16:12:52;0.20;;;0.20;;
15490;SDS011;7847;50.930;4.336;2022-10-31T16:15:19;0.20;;;0.20;;
15490;SDS011;7847;50.930;4.336;2022-10-31T16:17:46;0.20;;;0.20;;
15490;SDS011;7847;50.930;4.336;2022-10-31T16:20:26;0.20;;;0.20;;
15490;SDS011;7847;50.930;4.336;2022-10-31T16:22:52;0.20;;;0.20;;
15490;SDS011;7847;50.930;4.336;2022-10-31T16:25:25;0.20;;;0.20;;
15490;SDS011;7847;50.930;4.336;2022-10-31T16:27:52;0.20;;;0.20;;
15490;SDS011;7847;50.930;4.336;2022-10-31T16:30:28;0.20;;;0.20;;
15490;SDS011;7847;50.930;4.336;2022-10-31T16:32:55;0.20;;;0.20;;
15490;SDS011;7847;50.930;4.336;2022-10-31T16:35:27;0.20;;;0.20;;
15490;SDS011;7847;50.930;4.336;2022-10-31T16:37:53;0.20;;;0.20;;
15490;SDS011;7847;50.930;4.336;2022-10-31T16:40:19;0.20;;;0.20;;
15490;SDS011;7847;50.930;4.336;2022-10-31T16:42:45;0.20;;;0.20;;
15490;SDS011;7847;50.930;4.336;2022-10-31T16:45:16;0.20;;;0.20;;
15490;SDS011;7847;50.930;4.336;2022-10-31T16:47:43;0.20;;;0.20;;
15490;SDS011;7847;50.930;4.336;2022-10-31T16:50:14;0.10;;;0.10;;
15490;SDS011;7847;50.930;4.336;2022-10-31T16:52:40;0.20;;;0.20;;
15490;SDS011;7847;50.930;4.336;2022-10-31T16:55:10;0.20;;;0.20;;
15490;SDS011;7847;50.930;4.336;2022-10-31T16:57:36;0.20;;;0.20;;
15490;SDS011;7847;50.930;4.336;2022-10-31T17:00:02;0.10;;;0.10;;
15490;SDS011;7847;50.930;4.336;2022-10-31T17:02:28;0.20;;;0.20;;
15490;SDS011;7847;50.930;4.336;2022-10-31T17:04:55;0.20;;;0.20;;
15490;SDS011;7847;50.930;4.336;2022-10-31T17:07:21;0.20;;;0.20;;
15490;SDS011;7847;50.930;4.336;2022-10-31T17:09:47;0.20;;;0.20;;
15490;SDS011;7847;50.930;4.336;2022-10-31T17:12:14;0.20;;;0.20;;
15490;SDS011;7847;50.930;4.336;2022-10-31T17:14:42;0.20;;;0.20;;
15490;SDS011;7847;50.930;4.336;2022-10-31T17:17:11;0.20;;;0.20;;
15490;SDS011;7847;50.930;4.336;2022-10-31T17:19:37;0.20;;;0.20;;
15490;SDS011;7847;50.930;4.336;2022-10-31T17:22:03;0.22;;;0.22;;
15490;SDS011;7847;50.930;4.336;2022-10-31T17:24:29;0.20;;;0.20;;
15490;SDS011;7847;50.930;4.336;2022-10-31T17:26:55;0.20;;;0.20;;
15490;SDS011;7847;50.930;4.336;2022-10-31T17:29:21;0.20;;;0.20;;
15490;SDS011;7847;50.930;4.336;2022-10-31T17:31:47;0.20;;;0.20;;
15490;SDS011;7847;50.930;4.336;2022-10-31T17:34:13;0.20;;;0.20;;
15490;SDS011;7847;50.930;4.336;2022-10-31T17:36:39;0.20;;;0.20;;
15490;SDS011;7847;50.930;4.336;2022-10-31T17:39:05;0.20;;;0.20;;
15490;SDS011;7847;50.930;4.336;2022-10-31T17:41:33;0.20;;;0.20;;
15490;SDS011;7847;50.930;4.336;2022-10-31T17:43:59;0.20;;;0.20;;